Time;durP1;ratioP1;P1;durP2;ratioP2;P2;SDS_P1;SDS_P2;PMS_P1;PMS_P2;Temp;Humidity;BMP_temperature;BMP_pressure;BME280_temperature;BME280_humidity;BME280_pressure;Samples;Min_cycle;Max_cycle;Signal;HPM_P1;HPM_P2
2022/10/11 00:02:21;;;;;;;;;;;9.00;99.90;;;;;;5078890;28;20165;-63
2022/10/11 00:04:49;;;;;;;;;;;8.90;99.90;;;;;;5078512;28;19946;-63
2022/10/11 00:07:18;;;;;;;;;;;9.00;99.90;;;;;;5078155;28;19912;-63
2022/10/11 00:09:47;;;;;;;;;;;9.00;99.90;;;;;;5078136;28;19913;-64
2022/10/11 00:12:13;;;;;;;;;;;9.00;99.90;;;;;;5078639;28;19922;-63
2022/10/11 00:14:38;;;;;;;;;;;9.00;99.90;;;;;;5078866;28;19920;-63
2022/10/11 00:17:06;;;;;;;;;;;9.00;99.90;;;;;;5078748;28;19969;-63
2022/10/11 00:19:32;;;;;;;;;;;8.90;99.90;;;;;;5078411;28;19912;-63
2022/10/11 00:21:58;;;;;;;;;;;8.90;99.90;;;;;;5077688;28;19983;-64
2022/10/11 00:24:24;;;;;;;;;;;8.90;99.90;;;;;;5078272;28;20011;-64
2022/10/11 00:26:49;;;;;;;;;;;8.90;99.90;;;;;;5078216;28;19916;-63
2022/10/11 00:29:15;;;;;;;;;;;9.00;99.90;;;;;;5078268;28;19950;-63
2022/10/11 00:31:41;;;;;;;;;;;8.90;99.90;;;;;;5078216;28;19919;-63
2022/10/11 00:34:07;;;;;;;;;;;8.80;99.90;;;;;;5077289;28;19916;-63
2022/10/11 00:36:33;;;;;;;;;;;8.80;99.90;;;;;;5077336;28;20282;-63
2022/10/11 00:38:58;;;;;;;;;;;8.80;99.90;;;;;;5078204;28;20194;-63
2022/10/11 00:41:24;;;;;;;;;;;8.70;99.90;;;;;;5077920;28;19916;-63
2022/10/11 00:44:08;;;;;;;;;;;8.70;99.90;;;;;;5077872;28;20298;-63
2022/10/11 00:46:34;;;;;;;;;;;8.80;99.90;;;;;;5060491;28;19912;-64
2022/10/11 00:49:03;;;;;;;;;;;8.70;99.90;;;;;;5077916;28;19918;-64
2022/10/11 00:51:34;;;;;;;;;;;8.80;99.90;;;;;;5077912;28;20219;-64
2022/10/11 00:54:05;;;;;;;;;;;8.80;99.90;;;;;;5077848;28;19981;-63
2022/10/11 00:56:33;;;;;;;;;;;8.80;99.90;;;;;;5074019;28;20007;-63
2022/10/11 00:59:00;;;;;;;;;;;8.70;99.90;;;;;;5078199;28;19930;-64
2022/10/11 01:01:26;;;;;;;;;;;8.70;99.90;;;;;;5077033;28;19908;-63
2022/10/11 01:03:52;;;;;;;;;;;8.70;99.90;;;;;;5076875;28;20223;-63
2022/10/11 01:06:18;;;;;;;;;;;8.70;99.90;;;;;;5043828;28;19912;-64
2022/10/11 01:08:47;;;;;;;;;;;8.70;99.90;;;;;;5043629;28;19923;-64
2022/10/11 01:11:16;;;;;;;;;;;8.60;99.90;;;;;;5076962;28;19908;-62
2022/10/11 01:14:00;;;;;;;;;;;8.50;99.90;;;;;;5060789;28;19908;-63
2022/10/11 01:16:32;;;;;;;;;;;8.50;99.90;;;;;;5077459;28;19908;-63
2022/10/11 01:19:19;;;;;;;;;;;8.60;99.90;;;;;;5077328;28;19908;-63
2022/10/11 01:21:51;;;;;;;;;;;8.60;99.90;;;;;;5075945;28;19948;-63
2022/10/11 01:24:47;;;;;;;;;;;8.50;99.90;;;;;;5076580;28;19916;-64
2022/10/11 01:27:24;;;;;;;;;;;8.50;99.90;;;;;;5077719;28;19909;-61
2022/10/11 01:29:56;;;;;;;;;;;8.50;99.90;;;;;;5076644;28;20300;-63
2022/10/11 01:32:47;;;;;;;;;;;8.60;99.90;;;;;;5077440;28;20025;-63
2022/10/11 01:35:19;;;;;;;;;;;8.50;99.90;;;;;;5076772;28;20169;-63
2022/10/11 01:37:47;;;;;;;;;;;8.60;99.90;;;;;;5077429;28;19908;-63
2022/10/11 01:40:20;;;;;;;;;;;8.60;99.90;;;;;;5077413;28;19919;-64
2022/10/11 01:42:46;;;;;;;;;;;8.60;99.90;;;;;;5077418;28;20006;-61
2022/10/11 01:45:17;;;;;;;;;;;8.60;99.90;;;;;;5077061;28;19912;-64
2022/10/11 01:47:44;;;;;;;;;;;8.60;99.90;;;;;;5077194;28;20212;-64
2022/10/11 01:50:29;;;;;;;;;;;8.60;99.90;;;;;;5077469;28;19931;-63
2022/10/11 01:52:56;;;;;;;;;;;8.60;99.90;;;;;;5077250;28;19969;-63
2022/10/11 01:55:29;;;;;;;;;;;8.50;99.90;;;;;;5076703;28;20229;-63
2022/10/11 01:58:01;;;;;;;;;;;8.50;99.90;;;;;;5077146;28;20215;-63
2022/10/11 02:00:32;;;;;;;;;;;8.50;99.90;;;;;;5076272;28;19918;-63
2022/10/11 02:03:10;;;;;;;;;;;8.30;99.90;;;;;;5077003;28;19908;-65
2022/10/11 02:05:40;;;;;;;;;;;8.30;99.90;;;;;;5059809;28;19965;-64
2022/10/11 02:08:28;;;;;;;;;;;8.20;99.90;;;;;;5076372;28;20299;-63
2022/10/11 02:10:57;;;;;;;;;;;8.20;99.90;;;;;;5077382;28;20357;-62
2022/10/11 02:13:30;;;;;;;;;;;8.20;99.90;;;;;;5077270;28;20199;-62
2022/10/11 02:15:57;;;;;;;;;;;8.20;99.90;;;;;;5076900;28;19910;-62
2022/10/11 02:18:25;;;;;;;;;;;8.20;99.90;;;;;;5076899;28;19908;-62
2022/10/11 02:20:51;;;;;;;;;;;8.30;99.90;;;;;;5076743;28;19908;-62
2022/10/11 02:23:24;;;;;;;;;;;8.10;99.90;;;;;;5059281;28;19912;-62
2022/10/11 02:25:51;;;;;;;;;;;8.10;99.90;;;;;;5076735;28;20195;-62
2022/10/11 02:28:19;;;;;;;;;;;8.10;99.90;;;;;;5076732;28;20243;-62
2022/10/11 02:30:46;;;;;;;;;;;8.10;99.90;;;;;;5076774;28;20010;-62
2022/10/11 02:33:13;;;;;;;;;;;8.10;99.90;;;;;;5077891;28;19920;-62
2022/10/11 02:35:41;;;;;;;;;;;8.10;99.90;;;;;;5080343;28;19912;-62
2022/10/11 02:38:17;;;;;;;;;;;8.00;99.90;;;;;;5080634;28;20287;-62
2022/10/11 02:40:45;;;;;;;;;;;8.10;99.90;;;;;;5080164;28;19920;-63
2022/10/11 02:43:43;;;;;;;;;;;8.10;99.90;;;;;;5080195;28;19908;-62
2022/10/11 02:46:09;;;;;;;;;;;8.10;99.90;;;;;;5057809;28;19912;-62
2022/10/11 02:48:35;;;;;;;;;;;8.10;99.90;;;;;;5080113;28;19972;-62
2022/10/11 02:51:01;;;;;;;;;;;8.10;99.90;;;;;;5079322;28;19908;-62
2022/10/11 02:53:26;;;;;;;;;;;8.00;99.90;;;;;;5080106;28;20057;-62
2022/10/11 02:55:53;;;;;;;;;;;7.90;99.90;;;;;;5080092;28;20302;-62
2022/10/11 02:58:19;;;;;;;;;;;8.00;99.90;;;;;;5079402;28;19908;-62
2022/10/11 03:00:45;;;;;;;;;;;7.90;99.90;;;;;;5079943;28;20054;-62
2022/10/11 03:03:10;;;;;;;;;;;8.00;99.90;;;;;;5079867;28;19946;-62
2022/10/11 03:05:39;;;;;;;;;;;8.00;99.90;;;;;;5079065;28;19962;-62
2022/10/11 03:08:08;;;;;;;;;;;8.00;99.90;;;;;;5079917;28;19908;-62
2022/10/11 03:10:35;;;;;;;;;;;7.90;99.90;;;;;;5079039;28;19908;-62
2022/10/11 03:13:00;;;;;;;;;;;7.90;99.90;;;;;;5079917;28;19908;-62
2022/10/11 03:15:26;;;;;;;;;;;7.80;99.90;;;;;;5078966;28;19909;-61
2022/10/11 03:17:52;;;;;;;;;;;7.70;99.90;;;;;;5079555;28;20153;-62
2022/10/11 03:20:17;;;;;;;;;;;7.80;99.90;;;;;;5079531;28;19912;-61
2022/10/11 03:22:43;;;;;;;;;;;7.70;99.90;;;;;;5078831;28;19978;-61
2022/10/11 03:25:08;;;;;;;;;;;7.70;99.90;;;;;;5079287;28;19979;-61
2022/10/11 03:27:34;;;;;;;;;;;7.80;99.90;;;;;;5079651;28;19912;-63
2022/10/11 03:30:00;;;;;;;;;;;7.80;99.90;;;;;;5078775;28;20307;-62
2022/10/11 03:32:26;;;;;;;;;;;7.70;99.90;;;;;;5079129;28;19909;-62
2022/10/11 03:34:51;;;;;;;;;;;7.70;99.90;;;;;;5079499;28;19913;-62
2022/10/11 03:37:17;;;;;;;;;;;7.70;99.90;;;;;;5079498;28;19908;-62
2022/10/11 03:39:44;;;;;;;;;;;7.70;99.90;;;;;;5079210;28;19912;-64
2022/10/11 03:42:10;;;;;;;;;;;7.70;99.90;;;;;;5079480;28;20360;-62
2022/10/11 03:44:37;;;;;;;;;;;7.50;99.90;;;;;;5078567;28;20007;-61
2022/10/11 03:47:03;;;;;;;;;;;7.30;99.90;;;;;;5078362;28;19919;-62
2022/10/11 03:49:29;;;;;;;;;;;7.20;99.90;;;;;;5079354;28;19908;-62
2022/10/11 03:51:55;;;;;;;;;;;7.30;99.90;;;;;;5078311;28;19913;-62
2022/10/11 03:54:20;;;;;;;;;;;7.40;99.90;;;;;;5078153;28;19913;-62
2022/10/11 03:56:46;;;;;;;;;;;7.40;99.90;;;;;;5079346;28;20192;-62
2022/10/11 03:59:12;;;;;;;;;;;7.50;99.90;;;;;;5078870;28;19912;-62
2022/10/11 04:01:37;;;;;;;;;;;7.50;99.90;;;;;;5078733;28;19919;-62
2022/10/11 04:04:04;;;;;;;;;;;7.50;99.90;;;;;;5078630;28;20279;-62
2022/10/11 04:06:29;;;;;;;;;;;7.50;99.90;;;;;;5078680;28;20016;-62
2022/10/11 04:08:55;;;;;;;;;;;7.40;99.90;;;;;;5078236;28;19965;-62
2022/10/11 04:11:21;;;;;;;;;;;7.50;99.90;;;;;;5078042;28;20169;-61
2022/10/11 04:13:46;;;;;;;;;;;7.50;99.90;;;;;;5077778;28;19973;-61
2022/10/11 04:16:12;;;;;;;;;;;7.60;99.90;;;;;;5077882;28;20161;-61
2022/10/11 04:18:38;;;;;;;;;;;7.60;99.90;;;;;;5077718;28;19961;-63
2022/10/11 04:21:03;;;;;;;;;;;7.60;99.90;;;;;;5077781;28;19913;-62
2022/10/11 04:23:30;;;;;;;;;;;7.60;99.90;;;;;;5078372;28;20245;-61
2022/10/11 04:25:55;;;;;;;;;;;7.60;99.90;;;;;;5078254;28;19916;-61
2022/10/11 04:28:21;;;;;;;;;;;7.50;99.90;;;;;;5078344;28;19969;-61
2022/10/11 04:30:47;;;;;;;;;;;7.50;99.90;;;;;;5078135;28;19969;-61
2022/10/11 04:33:13;;;;;;;;;;;7.50;99.90;;;;;;5077854;28;19966;-62
2022/10/11 04:35:39;;;;;;;;;;;7.40;99.90;;;;;;5078088;28;19924;-61
2022/10/11 04:38:05;;;;;;;;;;;7.40;99.90;;;;;;5078082;28;19949;-61
2022/10/11 04:40:31;;;;;;;;;;;7.50;99.90;;;;;;5078029;28;20000;-61
2022/10/11 04:42:56;;;;;;;;;;;7.50;99.90;;;;;;5078139;28;19944;-61
2022/10/11 04:45:22;;;;;;;;;;;7.50;99.90;;;;;;5077863;28;19976;-62
2022/10/11 04:47:48;;;;;;;;;;;7.60;99.90;;;;;;5078234;28;19970;-61
2022/10/11 04:50:13;;;;;;;;;;;7.60;99.90;;;;;;5078349;28;19912;-61
2022/10/11 04:52:39;;;;;;;;;;;7.70;99.90;;;;;;5077841;28;20297;-61
2022/10/11 04:55:05;;;;;;;;;;;7.70;99.90;;;;;;5077021;28;19923;-61
2022/10/11 04:57:31;;;;;;;;;;;7.50;99.90;;;;;;5077654;28;19919;-62
2022/10/11 04:59:56;;;;;;;;;;;7.30;99.90;;;;;;5060149;28;19908;-62
2022/10/11 05:02:22;;;;;;;;;;;7.20;99.90;;;;;;5077940;28;20129;-62
2022/10/11 05:04:48;;;;;;;;;;;7.10;99.90;;;;;;5076777;28;20063;-62
2022/10/11 05:07:13;;;;;;;;;;;7.20;99.90;;;;;;5077851;28;19912;-61
2022/10/11 05:09:39;;;;;;;;;;;7.20;99.90;;;;;;5077604;28;20014;-62
2022/10/11 05:12:05;;;;;;;;;;;7.30;99.90;;;;;;5077479;28;20304;-62
2022/10/11 05:14:30;;;;;;;;;;;7.30;99.90;;;;;;5077456;28;19915;-62
2022/10/11 05:16:56;;;;;;;;;;;7.20;99.90;;;;;;5059968;28;19916;-63
2022/10/11 05:19:22;;;;;;;;;;;7.30;99.90;;;;;;5077436;28;19912;-62
2022/10/11 05:21:48;;;;;;;;;;;7.30;99.90;;;;;;5077778;28;19908;-61
2022/10/11 05:24:13;;;;;;;;;;;7.40;99.90;;;;;;5077720;28;19908;-62
2022/10/11 05:26:39;;;;;;;;;;;7.40;99.90;;;;;;5077370;28;19920;-62
2022/10/11 05:29:05;;;;;;;;;;;7.50;99.90;;;;;;5077196;28;19977;-62
2022/10/11 05:31:31;;;;;;;;;;;7.50;99.90;;;;;;5076593;28;20279;-62
2022/10/11 05:33:57;;;;;;;;;;;7.70;99.90;;;;;;5076228;28;20213;-62
2022/10/11 05:36:22;;;;;;;;;;;7.80;99.90;;;;;;5077205;28;19912;-61
2022/10/11 05:38:48;;;;;;;;;;;7.80;99.90;;;;;;5077199;28;19919;-61
2022/10/11 05:41:14;;;;;;;;;;;7.80;99.90;;;;;;5077192;28;20006;-61
2022/10/11 05:43:40;;;;;;;;;;;7.80;99.90;;;;;;5077085;28;19912;-62
2022/10/11 05:46:05;;;;;;;;;;;7.90;99.90;;;;;;5076945;28;20302;-62
2022/10/11 05:48:31;;;;;;;;;;;7.90;99.90;;;;;;5077166;28;19913;-61
2022/10/11 05:50:58;;;;;;;;;;;7.90;99.90;;;;;;5077281;28;19961;-61
2022/10/11 05:53:23;;;;;;;;;;;8.00;99.90;;;;;;5076391;28;19920;-61
2022/10/11 05:55:49;;;;;;;;;;;8.00;99.90;;;;;;5059700;28;19916;-62
2022/10/11 05:58:17;;;;;;;;;;;8.10;99.90;;;;;;5076800;28;19923;-62
2022/10/11 06:00:43;;;;;;;;;;;8.00;99.90;;;;;;5076352;28;20236;-63
2022/10/11 06:03:09;;;;;;;;;;;7.80;99.90;;;;;;5077099;28;19948;-63
2022/10/11 06:05:35;;;;;;;;;;;7.60;99.90;;;;;;5076836;28;20027;-62
2022/10/11 06:08:01;;;;;;;;;;;7.60;99.90;;;;;;5077678;28;19966;-61
2022/10/11 06:10:27;;;;;;;;;;;7.70;99.90;;;;;;5080693;28;19962;-61
2022/10/11 06:12:53;;;;;;;;;;;7.70;99.90;;;;;;5080800;28;19913;-62
2022/10/11 06:15:18;;;;;;;;;;;7.80;99.90;;;;;;5080880;28;20196;-61
2022/10/11 06:17:45;;;;;;;;;;;7.80;99.90;;;;;;5079943;28;19908;-61
2022/10/11 06:20:11;;;;;;;;;;;7.90;99.90;;;;;;5080728;28;20280;-61
2022/10/11 06:22:37;;;;;;;;;;;7.90;99.90;;;;;;5080737;28;20196;-61
2022/10/11 06:25:02;;;;;;;;;;;8.00;99.90;;;;;;5080456;28;19923;-62
2022/10/11 06:27:28;;;;;;;;;;;8.10;99.90;;;;;;5080481;28;19958;-63
2022/10/11 06:29:55;;;;;;;;;;;8.10;99.90;;;;;;5080450;28;20203;-62
2022/10/11 06:32:21;;;;;;;;;;;8.20;99.90;;;;;;5080233;28;19913;-63
2022/10/11 06:34:46;;;;;;;;;;;9.90;99.90;;;;;;5080377;28;20007;-62
2022/10/11 06:37:12;;;;;;;;;;;9.60;99.90;;;;;;5080414;28;20011;-62
2022/10/11 06:39:37;;;;;;;;;;;9.40;99.90;;;;;;5079493;28;20344;-63
2022/10/11 06:42:03;;;;;;;;;;;9.30;99.90;;;;;;5080382;28;20284;-62
2022/10/11 06:44:29;;;;;;;;;;;9.30;99.90;;;;;;5079578;28;19951;-62
2022/10/11 06:46:54;;;;;;;;;;;9.20;99.90;;;;;;5080496;28;19908;-62
2022/10/11 06:49:20;;;;;;;;;;;9.30;99.90;;;;;;5080205;28;19908;-65
2022/10/11 06:51:46;;;;;;;;;;;9.40;99.90;;;;;;5079375;28;20268;-62
2022/10/11 06:54:11;;;;;;;;;;;9.40;99.90;;;;;;5080129;28;20007;-62
2022/10/11 06:56:37;;;;;;;;;;;9.40;99.90;;;;;;5080134;28;19974;-62
2022/10/11 06:59:03;;;;;;;;;;;9.60;99.90;;;;;;5080121;28;19966;-62
2022/10/11 07:01:29;;;;;;;;;;;9.70;99.90;;;;;;5080105;28;20219;-62
2022/10/11 07:03:56;;;;;;;;;;;9.70;99.90;;;;;;5079385;28;19974;-60
2022/10/11 07:06:23;;;;;;;;;;;9.80;99.90;;;;;;5079840;28;19912;-61
2022/10/11 07:08:48;;;;;;;;;;;9.90;99.90;;;;;;5079874;28;19905;-62
2022/10/11 07:11:15;;;;;;;;;;;9.90;99.90;;;;;;5080118;28;19912;-62
2022/10/11 07:13:41;;;;;;;;;;;9.90;99.90;;;;;;5079722;28;19916;-62
2022/10/11 07:16:08;;;;;;;;;;;9.80;99.90;;;;;;5079875;28;19923;-62
2022/10/11 07:18:34;;;;;;;;;;;9.80;99.90;;;;;;5079606;28;19953;-62
2022/10/11 07:21:07;;;;;;;;;;;9.90;99.90;;;;;;5079437;28;20328;-62
2022/10/11 07:23:33;;;;;;;;;;;10.00;99.90;;;;;;5079487;28;19908;-61
2022/10/11 07:25:59;;;;;;;;;;;10.10;99.90;;;;;;5079462;28;20199;-62
2022/10/11 07:28:25;;;;;;;;;;;10.20;99.90;;;;;;5079549;28;19908;-63
2022/10/11 07:30:50;;;;;;;;;;;10.30;99.90;;;;;;5079425;28;19908;-63
2022/10/11 07:33:16;;;;;;;;;;;10.30;99.90;;;;;;5079168;28;19927;-62
2022/10/11 07:35:42;;;;;;;;;;;10.30;99.90;;;;;;5079673;28;19912;-62
2022/10/11 07:38:07;;;;;;;;;;;10.30;99.90;;;;;;5079343;28;19952;-62
2022/10/11 07:40:39;;;;;;;;;;;10.20;99.90;;;;;;5079270;28;20004;-62
2022/10/11 07:43:05;;;;;;;;;;;10.30;99.90;;;;;;5079243;28;20280;-63
2022/10/11 07:45:30;;;;;;;;;;;10.30;99.90;;;;;;5079022;28;19912;-61
2022/10/11 07:47:56;;;;;;;;;;;10.40;99.90;;;;;;5079137;28;20192;-61
2022/10/11 07:50:22;;;;;;;;;;;10.40;99.90;;;;;;5079306;28;19919;-62
2022/10/11 07:52:48;;;;;;;;;;;10.60;99.90;;;;;;5079125;28;19966;-61
2022/10/11 07:55:14;;;;;;;;;;;10.60;99.90;;;;;;5078908;28;19905;-62
2022/10/11 07:57:40;;;;;;;;;;;10.70;99.90;;;;;;5078966;28;20284;-61
2022/10/11 08:00:06;;;;;;;;;;;10.80;99.90;;;;;;5078990;28;19916;-61
2022/10/11 08:02:37;;;;;;;;;;;10.90;99.90;;;;;;5078928;28;19999;-62
2022/10/11 08:05:03;;;;;;;;;;;11.00;99.90;;;;;;5078714;28;19962;-62
2022/10/11 08:07:29;;;;;;;;;;;11.10;99.90;;;;;;5078749;28;20011;-62
2022/10/11 08:09:55;;;;;;;;;;;11.20;99.90;;;;;;5078669;28;19920;-62
2022/10/11 08:12:20;;;;;;;;;;;11.30;99.90;;;;;;5079268;28;20299;-63
2022/10/11 08:14:46;;;;;;;;;;;11.40;99.90;;;;;;5078879;28;19921;-62
2022/10/11 08:17:13;;;;;;;;;;;11.50;99.90;;;;;;5078996;28;19908;-62
2022/10/11 08:19:39;;;;;;;;;;;11.40;99.90;;;;;;5078494;28;19958;-62
2022/10/11 08:22:05;;;;;;;;;;;11.30;99.90;;;;;;5078748;28;20192;-62
2022/10/11 08:24:31;;;;;;;;;;;11.40;99.90;;;;;;5078389;28;20199;-62
2022/10/11 08:26:56;;;;;;;;;;;11.50;99.90;;;;;;5077716;28;19912;-62
2022/10/11 08:29:22;;;;;;;;;;;11.60;99.90;;;;;;5078634;28;19912;-62
2022/10/11 08:31:48;;;;;;;;;;;11.70;99.90;;;;;;5077948;28;19924;-62
2022/10/11 08:34:13;;;;;;;;;;;11.70;99.90;;;;;;5077348;28;19932;-62
2022/10/11 08:36:39;;;;;;;;;;;11.80;99.90;;;;;;5077504;28;19908;-62
2022/10/11 08:39:05;;;;;;;;;;;11.90;99.90;;;;;;5078196;28;19970;-62
2022/10/11 08:41:38;;;;;;;;;;;12.10;99.90;;;;;;5078054;28;20307;-62
2022/10/11 08:44:27;;;;;;;;;;;12.30;99.90;;;;;;5077899;28;19908;-62
2022/10/11 08:46:58;;;;;;;;;;;12.40;99.90;;;;;;5078021;28;19908;-62
2022/10/11 08:49:27;;;;;;;;;;;12.50;99.90;;;;;;5077957;28;19908;-62
2022/10/11 08:51:58;;;;;;;;;;;12.60;99.90;;;;;;5077956;28;19908;-62
2022/10/11 08:54:41;;;;;;;;;;;12.70;99.90;;;;;;5078150;28;20302;-63
2022/10/11 08:57:11;;;;;;;;;;;12.70;99.90;;;;;;5078145;28;19920;-62
2022/10/11 08:59:54;;;;;;;;;;;12.80;99.90;;;;;;5077825;28;19995;-63
2022/10/11 09:02:20;;;;;;;;;;;12.80;99.90;;;;;;5077742;28;19995;-62
2022/10/11 09:04:50;;;;;;;;;;;13.00;99.90;;;;;;5077641;28;20264;-62
2022/10/11 09:07:15;;;;;;;;;;;13.00;99.90;;;;;;5076885;28;19908;-62
2022/10/11 09:09:41;;;;;;;;;;;13.10;99.90;;;;;;5077906;28;20343;-63
2022/10/11 09:12:10;;;;;;;;;;;13.30;99.90;;;;;;5077997;28;19935;-62
2022/10/11 09:14:39;;;;;;;;;;;13.50;99.90;;;;;;5077562;28;20357;-62
2022/10/11 09:17:24;;;;;;;;;;;13.50;99.90;;;;;;5077568;28;19919;-63
2022/10/11 09:19:58;;;;;;;;;;;13.50;99.90;;;;;;5077493;28;19995;-63
2022/10/11 09:22:30;;;;;;;;;;;13.60;99.90;;;;;;5077518;28;19915;-63
2022/10/11 09:25:05;;;;;;;;;;;13.80;99.90;;;;;;5077475;28;19919;-63
2022/10/11 09:27:35;;;;;;;;;;;13.60;99.90;;;;;;5077454;28;20003;-63
2022/10/11 09:30:03;;;;;;;;;;;13.60;99.90;;;;;;5077413;28;20003;-63
2022/10/11 09:32:31;;;;;;;;;;;13.70;99.90;;;;;;5077883;28;20268;-63
2022/10/11 09:35:07;;;;;;;;;;;13.90;99.90;;;;;;5077292;28;19920;-63
2022/10/11 09:37:37;;;;;;;;;;;14.00;99.90;;;;;;5077636;28;19943;-63
2022/10/11 09:40:08;;;;;;;;;;;13.90;99.90;;;;;;5077275;28;19908;-64
2022/10/11 09:42:34;;;;;;;;;;;14.00;99.90;;;;;;5076476;28;19920;-63
2022/10/11 09:45:00;;;;;;;;;;;14.20;99.90;;;;;;5076360;28;19920;-63
2022/10/11 09:47:27;;;;;;;;;;;14.10;99.90;;;;;;5077128;28;19915;-63
2022/10/11 09:49:57;;;;;;;;;;;14.20;99.90;;;;;;5077091;28;19908;-62
2022/10/11 09:52:23;;;;;;;;;;;14.40;99.90;;;;;;5076711;28;19922;-63
2022/10/11 09:54:50;;;;;;;;;;;14.60;99.90;;;;;;5077256;28;20011;-63
2022/10/11 09:57:32;;;;;;;;;;;14.80;99.90;;;;;;5077017;28;19973;-62
2022/10/11 09:59:59;;;;;;;;;;;15.10;99.90;;;;;;5076771;28;19908;-62
2022/10/11 10:02:25;;;;;;;;;;;15.20;99.90;;;;;;5077279;28;20310;-63
2022/10/11 10:04:55;;;;;;;;;;;15.40;99.90;;;;;;5077464;28;19960;-63
2022/10/11 10:07:21;;;;;;;;;;;15.70;99.90;;;;;;5076879;28;19908;-63
2022/10/11 10:09:47;;;;;;;;;;;16.40;99.90;;;;;;5076540;28;20203;-62
2022/10/11 10:12:17;;;;;;;;;;;17.70;99.90;;;;;;5076949;28;19934;-62
2022/10/11 10:14:52;;;;;;;;;;;18.50;99.90;;;;;;5076138;28;19974;-63
2022/10/11 10:17:18;;;;;;;;;;;18.50;99.90;;;;;;5076224;28;19942;-62
2022/10/11 10:19:49;;;;;;;;;;;18.30;99.90;;;;;;5077125;28;19912;-63
2022/10/11 10:22:19;;;;;;;;;;;18.80;99.90;;;;;;5076774;28;19908;-63
2022/10/11 10:24:46;;;;;;;;;;;20.00;99.90;;;;;;5076676;28;19939;-62
2022/10/11 10:27:21;;;;;;;;;;;20.80;99.90;;;;;;5076769;28;20332;-62
2022/10/11 10:30:00;;;;;;;;;;;21.30;99.90;;;;;;5076769;28;19908;-62
2022/10/11 10:32:28;;;;;;;;;;;22.10;99.90;;;;;;5076556;28;19908;-63
2022/10/11 10:34:59;;;;;;;;;;;22.80;99.90;;;;;;5076897;28;19915;-65
2022/10/11 10:37:24;;;;;;;;;;;23.40;99.90;;;;;;5076719;28;19919;-62
2022/10/11 10:40:08;;;;;;;;;;;23.80;99.90;;;;;;5076743;28;19912;-62
2022/10/11 10:42:34;;;;;;;;;;;24.00;99.90;;;;;;5076739;28;19909;-63
2022/10/11 10:45:00;;;;;;;;;;;24.20;99.90;;;;;;5076515;28;19927;-63
2022/10/11 10:47:37;;;;;;;;;;;24.00;99.90;;;;;;5076590;28;19908;-63
2022/10/11 10:50:16;;;;;;;;;;;23.70;99.90;;;;;;5076514;28;19909;-63
2022/10/11 10:53:00;;;;;;;;;;;24.00;99.90;;;;;;5076533;28;19919;-62
2022/10/11 10:55:43;;;;;;;;;;;23.70;99.90;;;;;;5079760;28;19908;-63
2022/10/11 10:58:24;;;;;;;;;;;24.00;99.90;;;;;;5079940;28;20280;-64
2022/10/11 11:00:54;;;;;;;;;;;24.00;99.90;;;;;;5079967;28;20212;-63
2022/10/11 11:03:33;;;;;;;;;;;23.60;99.90;;;;;;5079938;28;19913;-62
2022/10/11 11:06:01;;;;;;;;;;;23.10;99.90;;;;;;5079756;28;19916;-62
2022/10/11 11:08:29;;;;;;;;;;;23.20;99.90;;;;;;5079180;28;19919;-63
2022/10/11 11:11:03;;;;;;;;;;;23.40;99.90;;;;;;5079022;28;19909;-62
2022/10/11 11:13:28;;;;;;;;;;;22.80;99.90;;;;;;5079002;28;20292;-63
2022/10/11 11:15:54;;;;;;;;;;;22.90;99.90;;;;;;5078806;28;19905;-63
2022/10/11 11:18:38;;;;;;;;;;;23.20;99.90;;;;;;5079632;28;20263;-63
2022/10/11 11:21:04;;;;;;;;;;;23.00;99.20;;;;;;5078610;28;20002;-63
2022/10/11 11:23:30;;;;;;;;;;;22.50;99.90;;;;;;5079529;28;20023;-62
2022/10/11 11:26:34;;;;;;;;;;;22.80;99.90;;;;;;5079459;28;19923;-61
2022/10/11 11:29:06;;;;;;;;;;;22.90;98.80;;;;;;5038374;28;19988;-61
2022/10/11 11:31:50;;;;;;;;;;;22.80;98.90;;;;;;5038126;28;20243;-62
2022/10/11 11:34:24;;;;;;;;;;;22.50;99.90;;;;;;5063954;28;19916;-62
2022/10/11 11:36:53;;;;;;;;;;;22.70;99.30;;;;;;5078593;28;20299;-63
2022/10/11 11:39:24;;;;;;;;;;;22.90;99.80;;;;;;5078641;28;19965;-62
2022/10/11 11:42:03;;;;;;;;;;;23.10;98.00;;;;;;5079297;28;19912;-63
2022/10/11 11:44:30;;;;;;;;;;;22.70;99.10;;;;;;5079511;28;19908;-63
2022/10/11 11:47:01;;;;;;;;;;;23.30;98.20;;;;;;5079181;28;19908;-63
2022/10/11 11:49:32;;;;;;;;;;;23.20;97.40;;;;;;5079532;28;19908;-63
2022/10/11 11:51:58;;;;;;;;;;;23.40;97.60;;;;;;5079164;28;19947;-62
2022/10/11 11:54:43;;;;;;;;;;;22.70;98.00;;;;;;5079508;28;19916;-62
2022/10/11 11:57:22;;;;;;;;;;;21.50;98.50;;;;;;5078927;28;19969;-62
2022/10/11 11:59:51;;;;;;;;;;;21.80;99.70;;;;;;5079421;28;19944;-62
2022/10/11 12:02:16;;;;;;;;;;;21.80;99.90;;;;;;5078921;28;19909;-62
2022/10/11 12:04:43;;;;;;;;;;;21.30;99.90;;;;;;5078393;28;20007;-62
2022/10/11 12:07:13;;;;;;;;;;;20.90;99.90;;;;;;5078192;28;20016;-62
2022/10/11 12:09:40;;;;;;;;;;;20.50;99.90;;;;;;5078781;28;20264;-62
2022/10/11 12:12:07;;;;;;;;;;;20.20;99.90;;;;;;5078767;28;19908;-62
2022/10/11 12:14:32;;;;;;;;;;;19.70;99.90;;;;;;5078580;28;19962;-62
2022/10/11 12:17:12;;;;;;;;;;;19.30;99.90;;;;;;5078563;28;19958;-63
2022/10/11 12:19:39;;;;;;;;;;;19.20;99.90;;;;;;5078800;28;19969;-62
2022/10/11 12:22:16;;;;;;;;;;;19.10;99.90;;;;;;5077704;28;19962;-62
2022/10/11 12:24:55;;;;;;;;;;;19.30;99.90;;;;;;5078597;28;20058;-62
2022/10/11 12:27:39;;;;;;;;;;;19.20;99.90;;;;;;5078409;28;19928;-63
2022/10/11 12:30:23;;;;;;;;;;;19.40;99.90;;;;;;5078545;28;19908;-62
2022/10/11 12:32:49;;;;;;;;;;;19.40;99.90;;;;;;5078104;28;19978;-64
2022/10/11 12:35:35;;;;;;;;;;;19.50;99.90;;;;;;5078398;28;19999;-63
2022/10/11 12:38:13;;;;;;;;;;;19.80;99.90;;;;;;5078162;28;20017;-61
2022/10/11 12:40:42;;;;;;;;;;;19.90;99.90;;;;;;5078123;28;19920;-62
2022/10/11 12:43:10;;;;;;;;;;;20.10;99.90;;;;;;5078287;28;19908;-62
2022/10/11 12:45:36;;;;;;;;;;;19.70;99.90;;;;;;5078047;28;20291;-63
2022/10/11 12:48:25;;;;;;;;;;;20.00;99.90;;;;;;5078213;28;19912;-62
2022/10/11 12:51:06;;;;;;;;;;;20.20;99.90;;;;;;5072229;28;20192;-62
2022/10/11 12:53:32;;;;;;;;;;;20.00;99.90;;;;;;5077910;28;19977;-63
2022/10/11 12:55:57;;;;;;;;;;;20.30;99.90;;;;;;5077852;28;19912;-63
2022/10/11 12:58:25;;;;;;;;;;;20.10;99.90;;;;;;5077878;28;19965;-63
2022/10/11 13:00:50;;;;;;;;;;;19.80;99.90;;;;;;5077743;28;20288;-63
2022/10/11 13:03:22;;;;;;;;;;;19.40;99.90;;;;;;5077779;28;19995;-63
2022/10/11 13:05:48;;;;;;;;;;;19.20;99.90;;;;;;5077691;28;20203;-62
2022/10/11 13:08:30;;;;;;;;;;;19.00;99.90;;;;;;5077865;28;19968;-62
2022/10/11 13:10:59;;;;;;;;;;;18.80;99.90;;;;;;5077957;28;19991;-63
2022/10/11 13:13:28;;;;;;;;;;;19.10;99.90;;;;;;5077594;28;19974;-63
2022/10/11 13:15:55;;;;;;;;;;;19.40;99.90;;;;;;5076627;28;20238;-63
2022/10/11 13:18:21;;;;;;;;;;;19.50;99.90;;;;;;5076523;28;19916;-65
2022/10/11 13:20:47;;;;;;;;;;;19.70;99.90;;;;;;5077416;28;20315;-63
2022/10/11 13:23:24;;;;;;;;;;;20.10;99.90;;;;;;5077438;28;19934;-62
2022/10/11 13:25:49;;;;;;;;;;;19.80;99.90;;;;;;5077349;28;19912;-62
2022/10/11 13:28:17;;;;;;;;;;;19.30;99.90;;;;;;5077359;28;20306;-62
2022/10/11 13:30:44;;;;;;;;;;;19.10;99.90;;;;;;5077347;28;20192;-62
2022/10/11 13:33:18;;;;;;;;;;;18.90;99.90;;;;;;5077455;28;19917;-62
2022/10/11 13:35:44;;;;;;;;;;;18.60;99.90;;;;;;5077349;28;20188;-61
2022/10/11 13:38:21;;;;;;;;;;;18.50;99.90;;;;;;5077294;28;19916;-62
2022/10/11 13:40:47;;;;;;;;;;;18.40;99.90;;;;;;5077271;28;20256;-60
2022/10/11 13:43:14;;;;;;;;;;;18.60;99.90;;;;;;5077186;28;19916;-60
2022/10/11 13:45:40;;;;;;;;;;;19.40;99.90;;;;;;5077180;28;19916;-56
2022/10/11 13:48:11;;;;;;;;;;;19.60;99.90;;;;;;5077157;28;19919;-61
2022/10/11 13:50:38;;;;;;;;;;;20.00;99.90;;;;;;5077336;28;19916;-63
2022/10/11 13:53:20;;;;;;;;;;;20.30;99.90;;;;;;5077185;28;19923;-61
2022/10/11 13:55:51;;;;;;;;;;;20.60;99.90;;;;;;5076440;28;20233;-61
2022/10/11 13:58:28;;;;;;;;;;;21.20;99.90;;;;;;5077085;28;19920;-61
2022/10/11 14:00:59;;;;;;;;;;;21.60;99.90;;;;;;5076656;28;19919;-62
2022/10/11 14:03:42;;;;;;;;;;;22.20;99.90;;;;;;5076867;28;19908;-62
2022/10/11 14:06:08;;;;;;;;;;;22.60;99.90;;;;;;5076912;28;19912;-63
2022/10/11 14:08:37;;;;;;;;;;;23.60;99.20;;;;;;5076961;28;20007;-63
2022/10/11 14:11:02;;;;;;;;;;;25.00;97.10;;;;;;5077057;28;20215;-62
2022/10/11 14:13:30;;;;;;;;;;;26.20;94.70;;;;;;5077168;28;19995;-62
2022/10/11 14:15:59;;;;;;;;;;;26.50;91.60;;;;;;5076847;28;19989;-63
2022/10/11 14:18:45;;;;;;;;;;;26.70;91.20;;;;;;5077034;28;19994;-62
2022/10/11 14:21:32;;;;;;;;;;;27.10;89.40;;;;;;5076744;28;19961;-63
2022/10/11 14:24:05;;;;;;;;;;;28.40;84.60;;;;;;5076829;28;19908;-63
2022/10/11 14:26:33;;;;;;;;;;;29.60;78.10;;;;;;5077352;28;19943;-63
2022/10/11 14:29:00;;;;;;;;;;;31.00;70.70;;;;;;5077892;28;19904;-63
2022/10/11 14:31:28;;;;;;;;;;;30.60;66.60;;;;;;5080965;28;19974;-62
2022/10/11 14:33:54;;;;;;;;;;;30.90;64.80;;;;;;5080370;28;20061;-63
2022/10/11 14:36:21;;;;;;;;;;;30.40;65.50;;;;;;5080532;28;19912;-62